Time;durP1;ratioP1;P1;durP2;ratioP2;P2;SDS_P1;SDS_P2;PMS_P1;PMS_P2;Temp;Humidity;BMP_temperature;BMP_pressure;BME280_temperature;BME280_humidity;BME280_pressure;Samples;Min_cycle;Max_cycle;Signal;HPM_P1;HPM_P2
2023/05/17 00:00:48;;;;;;;5.72;3.90;;;;;;;14.33;48.01;99810.81;7346830;19;20036;-68
2023/05/17 00:03:13;;;;;;;5.50;3.28;;;;;;;14.33;47.99;99812.66;7347436;19;20011;-67
2023/05/17 00:05:38;;;;;;;5.60;3.30;;;;;;;14.28;48.28;99814.84;7346197;19;20358;-68
2023/05/17 00:08:03;;;;;;;7.68;4.45;;;;;;;14.26;48.30;99814.13;7345759;19;20390;-73
2023/05/17 00:10:28;;;;;;;4.38;3.10;;;;;;;14.24;48.27;99816.06;7347233;19;20026;-68
2023/05/17 00:12:53;;;;;;;4.85;3.15;;;;;;;14.21;48.43;99816.38;7345959;19;20046;-69
2023/05/17 00:15:18;;;;;;;5.47;3.75;;;;;;;14.21;48.43;99816.38;7346709;19;20019;-70
2023/05/17 00:17:44;;;;;;;4.70;2.92;;;;;;;14.23;48.32;99817.06;7338315;19;20028;-68
2023/05/17 00:20:09;;;;;;;7.93;3.35;;;;;;;14.20;48.31;99828.91;7343823;19;20049;-67
2023/05/17 00:22:34;;;;;;;8.27;4.07;;;;;;;14.19;48.44;99824.53;7344424;19;20018;-69
2023/05/17 00:24:58;;;;;;;3.88;3.13;;;;;;;14.15;48.56;99818.56;7344868;19;20434;-71
2023/05/17 00:27:23;;;;;;;7.63;4.00;;;;;;;14.16;48.66;99828.31;7344359;19;20022;-67
2023/05/17 00:29:47;;;;;;;11.38;3.47;;;;;;;14.13;48.79;99828.56;7344146;19;20022;-66
2023/05/17 00:32:16;;;;;;;5.25;3.05;;;;;;;14.11;49.15;99830.50;7348168;19;20014;-68
2023/05/17 00:34:40;;;;;;;6.15;3.22;;;;;;;14.10;48.90;99831.50;7343133;19;20014;-66
2023/05/17 00:37:05;;;;;;;4.72;3.13;;;;;;;14.10;48.92;99839.56;7343732;19;20022;-68
2023/05/17 00:39:30;;;;;;;5.07;3.17;;;;;;;14.10;48.93;99838.72;7346695;19;20479;-67
2023/05/17 00:41:55;;;;;;;3.47;2.75;;;;;;;14.06;49.08;99840.78;7344662;19;20011;-68
2023/05/17 00:44:20;;;;;;;6.43;3.13;;;;;;;14.05;49.01;99839.06;7342667;19;20026;-68
2023/05/17 00:46:45;;;;;;;6.47;3.08;;;;;;;14.07;48.91;99836.28;7343567;19;20006;-68
2023/05/17 00:49:10;;;;;;;6.82;3.53;;;;;;;14.02;49.16;99842.00;7342180;19;20015;-69
2023/05/17 00:51:36;;;;;;;6.47;3.47;;;;;;;13.99;49.16;99842.28;7341085;19;20026;-68
2023/05/17 00:54:03;;;;;;;5.13;3.60;;;;;;;13.98;49.24;99837.88;7344531;19;20022;-68
2023/05/17 00:56:29;;;;;;;7.07;3.80;;;;;;;13.94;49.47;99844.47;7343531;19;20032;-68
2023/05/17 00:58:53;;;;;;;7.60;3.78;;;;;;;13.90;49.42;99845.69;7340805;19;20352;-67
2023/05/17 01:01:19;;;;;;;7.07;3.60;;;;;;;13.91;49.32;99844.72;7339041;19;20347;-68
2023/05/17 01:03:44;;;;;;;4.53;2.78;;;;;;;13.93;49.27;99845.44;7342856;19;20018;-68
2023/05/17 01:06:10;;;;;;;4.50;2.85;;;;;;;13.91;49.51;99843.84;7340915;19;20307;-68
2023/05/17 01:08:36;;;;;;;7.85;3.58;;;;;;;13.89;49.58;99857.38;7341876;19;20046;-68
2023/05/17 01:11:39;;;;;;;7.68;3.67;;;;;;;13.93;49.32;99856.16;7340790;19;20031;-68
2023/05/17 01:14:31;;;;;;;6.22;3.38;;;;;;;13.96;49.15;99858.59;7341686;19;20025;-73
2023/05/17 01:17:05;;;;;;;5.10;3.15;;;;;;;13.86;49.86;99863.00;7340127;19;20026;-69
2023/05/17 01:19:58;;;;;;;5.53;3.08;;;;;;;13.91;49.63;99863.47;7343505;19;20097;-65
2023/05/17 01:23:00;;;;;;;11.38;4.22;;;;;;;13.86;49.63;99868.38;7344926;19;20022;-64
2023/05/17 01:25:34;;;;;;;8.50;4.97;;;;;;;13.70;50.52;99868.75;7342927;19;20018;-68
2023/05/17 01:28:00;;;;;;;7.60;4.90;;;;;;;13.66;50.76;99877.16;7344918;19;20039;-69
2023/05/17 01:30:28;;;;;;;9.57;3.90;;;;;;;13.59;50.76;99867.91;7346681;19;20703;-68
2023/05/17 01:32:57;;;;;;;7.38;3.67;;;;;;;13.51;51.38;99871.22;7343257;19;20017;-70
2023/05/17 01:35:22;;;;;;;8.68;4.43;;;;;;;13.47;51.03;99874.25;7344215;19;20069;-68
2023/05/17 01:37:51;;;;;;;9.60;4.00;;;;;;;13.48;51.27;99878.63;7344752;19;20330;-69
2023/05/17 01:40:19;;;;;;;6.65;3.55;;;;;;;13.40;51.16;99872.06;7344864;19;20065;-69
2023/05/17 01:42:50;;;;;;;7.20;3.78;;;;;;;13.36;51.85;99870.59;7345414;19;20055;-69
2023/05/17 01:45:55;;;;;;;6.15;3.42;;;;;;;13.47;51.08;99874.25;7344649;19;20019;-69
2023/05/17 01:48:25;;;;;;;9.82;3.85;;;;;;;13.36;51.65;99873.28;7345945;19;20003;-69
2023/05/17 01:50:54;;;;;;;11.63;4.25;;;;;;;13.36;51.44;99870.59;7341491;19;20094;-67
2023/05/17 01:53:33;;;;;;;4.30;3.22;;;;;;;13.35;51.90;99878.75;7342770;19;20363;-66
2023/05/17 01:56:09;;;;;;;7.60;3.95;;;;;;;13.39;51.87;99870.38;7345909;19;20035;-65
2023/05/17 01:58:43;;;;;;;4.97;3.40;;;;;;;13.44;51.37;99880.69;7341555;19;20018;-66
2023/05/17 02:01:09;;;;;;;9.10;4.78;;;;;;;13.45;51.27;99875.22;7342458;19;20458;-67
2023/05/17 02:03:34;;;;;;;5.55;3.90;;;;;;;13.53;51.32;99881.81;7346084;19;20015;-65
2023/05/17 02:05:59;;;;;;;10.07;4.30;;;;;;;13.52;51.67;99877.44;7349934;19;20025;-66
2023/05/17 02:08:24;;;;;;;7.50;3.50;;;;;;;13.56;51.35;99881.53;7352486;19;20015;-67
2023/05/17 02:10:49;;;;;;;3.92;3.08;;;;;;;13.61;51.10;99884.72;7350636;19;20033;-73
2023/05/17 02:13:15;;;;;;;7.20;3.95;;;;;;;13.66;50.98;99887.88;7351203;19;20014;-58
2023/05/17 02:15:40;;;;;;;4.65;3.03;;;;;;;13.71;51.08;99885.69;7349306;19;20015;-59
2023/05/17 02:18:05;;;;;;;5.95;3.58;;;;;;;13.74;51.51;99882.75;7348928;19;20086;-59
2023/05/17 02:20:50;;;;;;;9.20;3.65;;;;;;;13.80;51.14;99876.91;7352051;19;20018;-69
2023/05/17 02:23:14;;;;;;;9.93;3.72;;;;;;;13.88;51.17;99882.50;7363544;19;20073;-71
2023/05/17 02:25:39;;;;;;;4.15;3.47;;;;;;;13.98;50.44;99887.97;7362992;19;20037;-68
2023/05/17 02:28:04;;;;;;;7.28;3.58;;;;;;;14.02;50.56;99887.56;7365220;19;20019;-72
2023/05/17 02:30:28;;;;;;;5.53;3.53;;;;;;;14.12;50.20;99880.47;7356984;19;20015;-65
2023/05/17 02:32:55;;;;;;;3.83;3.25;;;;;;;14.22;50.18;99887.78;7355003;19;20010;-60
2023/05/17 02:35:20;;;;;;;6.03;3.70;;;;;;;14.25;50.10;99885.69;7350296;19;20362;-59
2023/05/17 02:38:08;;;;;;;4.78;2.95;;;;;;;14.25;50.10;99885.69;7350250;19;20433;-62
2023/05/17 02:41:31;;;;;;;7.40;3.50;;;;;;;-143.58;100.00;61926.94;7350261;19;20480;-61
2023/05/17 02:44:56;;;;;;;6.18;3.58;;;;;;;-143.58;100.00;61926.94;7350785;19;20053;-60
2023/05/17 02:47:23;;;;;;;5.78;3.55;;;;;;;14.73;49.07;99893.31;7349173;19;20023;-64
2023/05/17 02:49:47;;;;;;;5.00;3.33;;;;;;;14.76;48.90;99883.19;7349592;19;20331;-60
2023/05/17 02:52:14;;;;;;;5.30;3.38;;;;;;;14.86;48.69;99896.69;7360357;19;20353;-69
2023/05/17 02:54:39;;;;;;;7.55;3.38;;;;;;;14.95;48.50;99890.50;7361830;19;20024;-69
2023/05/17 02:57:04;;;;;;;8.60;4.03;;;;;;;15.06;48.24;99897.66;7364931;19;20014;-78
2023/05/17 02:59:29;;;;;;;7.90;3.55;;;;;;;15.17;48.10;99900.25;7351860;19;20022;-71
2023/05/17 03:01:53;;;;;;;10.98;3.33;;;;;;;15.23;48.07;99897.06;7347462;19;20007;-70
2023/05/17 03:04:19;;;;;;;7.75;3.17;;;;;;;15.30;47.55;99890.16;7348563;19;20426;-73
2023/05/17 03:06:44;;;;;;;9.68;3.72;;;;;;;15.25;48.06;99895.91;7347035;19;20020;-70
2023/05/17 03:09:11;;;;;;;9.80;3.05;;;;;;;15.32;47.96;99901.63;7350122;19;20010;-67
2023/05/17 03:11:36;;;;;;;8.25;3.40;;;;;;;15.42;47.63;99899.84;7350271;19;20429;-73
2023/05/17 03:14:04;;;;;;;7.32;3.63;;;;;;;15.52;47.52;99895.34;7348276;19;20031;-72
2023/05/17 03:16:29;;;;;;;7.18;3.33;;;;;;;15.64;47.46;99893.44;7348145;19;20065;-63
2023/05/17 03:18:55;;;;;;;5.47;3.47;;;;;;;15.74;47.21;99897.03;7348060;19;20838;-68
2023/05/17 03:21:25;;;;;;;7.53;3.28;;;;;;;15.90;47.13;99896.53;7345886;19;20080;-66
2023/05/17 03:23:51;;;;;;;4.72;4.00;;;;;;;16.01;46.72;99895.56;7347603;19;20121;-66
2023/05/17 03:26:18;;;;;;;6.80;3.85;;;;;;;16.10;46.43;99900.94;7348411;19;20645;-67
2023/05/17 03:28:47;;;;;;;9.52;3.40;;;;;;;16.27;46.24;99905.63;7345944;19;20344;-67
2023/05/17 03:31:13;;;;;;;6.32;3.65;;;;;;;16.40;45.84;99907.22;7347105;19;20029;-69
2023/05/17 03:33:38;;;;;;;8.85;4.28;;;;;;;16.50;45.59;99900.00;7344238;19;20026;-66
2023/05/17 03:36:03;;;;;;;9.40;3.63;;;;;;;16.60;45.44;99906.22;7344033;19;20014;-65
2023/05/17 03:38:29;;;;;;;6.07;3.45;;;;;;;16.71;45.60;99908.81;7349334;19;20021;-63
2023/05/17 03:40:58;;;;;;;10.57;4.10;;;;;;;16.76;45.50;99909.25;7344401;19;20094;-72
2023/05/17 03:43:23;;;;;;;5.75;3.47;;;;;;;16.94;44.73;99904.81;7349879;19;20023;-65
2023/05/17 03:45:49;;;;;;;5.55;3.83;;;;;;;17.05;44.65;99906.50;7346473;19;20341;-63
2023/05/17 03:48:15;;;;;;;6.82;3.53;;;;;;;17.08;44.65;99908.91;7343972;19;20755;-72
2023/05/17 03:50:41;;;;;;;9.40;3.50;;;;;;;17.14;44.42;99904.81;7342615;19;20018;-71
2023/05/17 03:53:06;;;;;;;6.70;3.28;;;;;;;17.21;44.61;99908.63;7345078;19;20010;-70
2023/05/17 03:55:31;;;;;;;13.65;3.70;;;;;;;17.34;44.33;99898.38;7348337;19;20474;-73
2023/05/17 03:57:56;;;;;;;10.32;3.80;;;;;;;17.39;44.20;99902.31;7350172;19;20508;-64
2023/05/17 04:00:23;;;;;;;4.93;3.58;;;;;;;17.47;43.81;99912.38;7341705;19;20362;-73
2023/05/17 04:02:50;;;;;;;10.35;4.00;;;;;;;17.52;43.70;99912.78;7347208;19;20022;-67
2023/05/17 04:05:16;;;;;;;4.20;3.25;;;;;;;17.70;43.42;99912.91;7346348;19;20480;-66
2023/05/17 04:07:44;;;;;;;9.38;4.20;;;;;;;17.82;42.99;99918.94;7342290;19;20034;-66
2023/05/17 04:10:10;;;;;;;10.27;3.60;;;;;;;17.95;43.10;99914.88;7343183;19;20010;-64
2023/05/17 04:12:35;;;;;;;7.22;4.13;;;;;;;18.05;42.76;99925.66;7342218;19;20082;-63
2023/05/17 04:15:01;;;;;;;4.35;3.38;;;;;;;18.11;42.66;99925.03;7342813;19;20374;-64
2023/05/17 04:17:29;;;;;;;8.25;4.07;;;;;;;18.25;42.65;99934.47;7344317;19;20026;-64
2023/05/17 04:19:58;;;;;;;8.68;3.72;;;;;;;18.44;42.07;99924.38;7346718;19;20114;-64
2023/05/17 04:22:23;;;;;;;7.97;4.22;;;;;;;18.60;41.82;99925.59;7344628;19;20014;-65
2023/05/17 04:24:48;;;;;;;5.40;3.20;;;;;;;18.84;41.67;99926.69;7343809;19;20078;-66
2023/05/17 04:27:16;;;;;;;9.38;3.55;;;;;;;19.09;41.19;99927.72;7342002;19;20023;-64
2023/05/17 04:29:41;;;;;;;9.23;4.15;;;;;;;19.34;40.80;99927.88;7346156;19;20026;-66
2023/05/17 04:32:07;;;;;;;6.57;4.28;;;;;;;19.70;40.46;99924.09;7343278;19;20007;-66
2023/05/17 04:34:33;;;;;;;5.78;3.40;;;;;;;20.09;39.24;99926.31;7344289;19;20014;-63
2023/05/17 04:37:00;;;;;;;5.90;3.33;;;;;;;20.54;39.04;99934.91;7342851;19;20022;-65
2023/05/17 04:39:27;;;;;;;6.22;3.95;;;;;;;21.00;37.74;99933.44;7342888;19;20146;-63
2023/05/17 04:41:52;;;;;;;6.20;3.55;;;;;;;21.18;37.21;99921.56;7341197;19;20086;-63
2023/05/17 04:44:18;;;;;;;14.20;4.25;;;;;;;21.34;36.05;99930.56;7342654;19;20070;-62
2023/05/17 04:46:43;;;;;;;4.95;3.75;;;;;;;21.23;35.97;99925.50;7342925;19;20024;-67
2023/05/17 04:49:10;;;;;;;7.40;3.65;;;;;;;21.34;35.90;99924.28;7346389;19;20482;-63
2023/05/17 04:51:35;;;;;;;11.90;3.60;;;;;;;21.50;35.50;99926.13;7344915;19;20480;-64
2023/05/17 04:54:00;;;;;;;5.85;2.70;;;;;;;21.65;34.87;99922.56;7342471;19;20342;-63
2023/05/17 04:56:27;;;;;;;4.68;2.80;;;;;;;21.69;34.64;99936.59;7342670;19;20332;-63
2023/05/17 04:58:53;;;;;;;6.57;3.35;;;;;;;21.77;34.34;99923.03;7341612;19;20023;-65
2023/05/17 05:01:18;;;;;;;5.88;3.38;;;;;;;21.79;34.46;99931.81;7340630;19;20015;-65
2023/05/17 05:03:43;;;;;;;3.72;3.15;;;;;;;21.91;34.13;99924.13;7345313;19;20014;-64
2023/05/17 05:06:10;;;;;;;6.07;3.40;;;;;;;22.00;34.31;99932.13;7340298;19;20022;-67
2023/05/17 05:08:36;;;;;;;6.57;3.30;;;;;;;21.99;34.17;99926.88;7340569;19;20022;-66
2023/05/17 05:11:03;;;;;;;4.15;3.08;;;;;;;22.05;34.26;99928.88;7340033;19;20014;-65
2023/05/17 05:13:28;;;;;;;7.03;3.55;;;;;;;22.04;34.24;99927.19;7340086;19;20512;-66
2023/05/17 05:15:55;;;;;;;7.72;3.40;;;;;;;22.11;34.13;99939.03;7341975;19;20015;-65
2023/05/17 05:18:20;;;;;;;8.35;3.97;;;;;;;22.36;33.82;99932.44;7344352;19;20348;-65
2023/05/17 05:20:47;;;;;;;7.95;3.58;;;;;;;22.46;33.44;99927.63;7339992;19;20022;-66
2023/05/17 05:23:12;;;;;;;10.15;3.17;;;;;;;22.68;33.34;99928.72;7340279;19;20018;-66
2023/05/17 05:25:37;;;;;;;8.98;3.38;;;;;;;22.84;33.09;99924.19;7340955;19;20025;-66
2023/05/17 05:28:03;;;;;;;5.80;3.40;;;;;;;23.20;32.59;99929.84;7341417;19;20010;-66
2023/05/17 05:30:28;;;;;;;7.03;4.10;;;;;;;23.21;32.33;99934.25;7341210;19;20018;-65
2023/05/17 05:32:54;;;;;;;6.68;3.75;;;;;;;23.14;32.09;99926.81;7340149;19;20014;-66
2023/05/17 05:35:19;;;;;;;5.43;3.35;;;;;;;23.37;32.43;99926.78;7339591;19;20022;-65
2023/05/17 05:37:44;;;;;;;7.90;3.53;;;;;;;24.11;31.81;99937.75;7339209;19;20399;-67
2023/05/17 05:40:10;;;;;;;9.23;3.72;;;;;;;24.83;31.31;99935.06;7340374;19;20018;-66
2023/05/17 05:42:35;;;;;;;6.18;3.63;;;;;;;25.17;30.60;99927.00;7339508;19;20019;-67
2023/05/17 05:45:00;;;;;;;5.90;3.35;;;;;;;25.76;29.52;99925.78;7339409;19;20035;-69
2023/05/17 05:47:25;;;;;;;7.40;3.70;;;;;;;25.90;29.47;99922.94;7339588;19;20014;-67
2023/05/17 05:49:52;;;;;;;5.28;3.42;;;;;;;26.19;28.83;99935.47;7339750;19;20014;-67
2023/05/17 05:52:17;;;;;;;8.27;3.60;;;;;;;26.59;28.26;99933.78;7338748;19;20114;-66
2023/05/17 05:54:43;;;;;;;8.10;3.40;;;;;;;27.05;27.83;99924.84;7338963;19;20015;-66
2023/05/17 05:57:08;;;;;;;3.40;2.70;;;;;;;27.66;27.23;99928.19;7343547;19;20019;-67
2023/05/17 05:59:33;;;;;;;6.50;3.30;;;;;;;27.64;26.37;99926.75;7341176;19;20021;-67
2023/05/17 06:01:58;;;;;;;7.97;4.07;;;;;;;27.76;26.78;99925.03;7337785;19;20019;-73
2023/05/17 06:04:24;;;;;;;7.82;3.28;;;;;;;27.84;26.05;99922.06;7345476;19;20026;-65
2023/05/17 06:06:49;;;;;;;7.13;3.22;;;;;;;27.74;26.02;99925.25;7340623;19;20042;-68
2023/05/17 06:09:14;;;;;;;3.83;3.13;;;;;;;28.26;25.47;99931.66;7341860;19;20022;-69
2023/05/17 06:11:38;;;;;;;15.30;3.75;;;;;;;28.50;25.37;99932.81;7341498;19;20014;-66
2023/05/17 06:14:03;;;;;;;5.72;3.40;;;;;;;28.87;24.64;99937.50;7339554;19;20763;-65
2023/05/17 06:16:28;;;;;;;4.65;3.00;;;;;;;28.67;24.71;99933.97;7341149;19;20112;-67
2023/05/17 06:18:56;;;;;;;7.07;3.55;;;;;;;28.35;25.63;99929.50;7340736;19;20070;-66
2023/05/17 06:21:21;;;;;;;10.63;3.97;;;;;;;28.89;25.09;99929.84;7339886;19;20030;-66
2023/05/17 06:23:46;;;;;;;3.85;3.10;;;;;;;29.65;24.48;99931.59;7340956;19;20014;-64
2023/05/17 06:26:10;;;;;;;7.57;3.63;;;;;;;30.42;24.08;99938.34;7342306;19;20029;-67
2023/05/17 06:28:38;;;;;;;6.25;3.42;;;;;;;30.77;23.25;99941.31;7344217;19;20086;-66
2023/05/17 06:31:03;;;;;;;9.25;3.40;;;;;;;31.01;23.05;99936.72;7341703;19;20025;-66
2023/05/17 06:33:28;;;;;;;4.82;3.80;;;;;;;31.00;22.63;99944.13;7346897;19;20457;-66
2023/05/17 06:35:55;;;;;;;7.70;3.63;;;;;;;30.44;22.98;99940.88;7342643;19;20454;-69
2023/05/17 06:38:20;;;;;;;5.22;2.88;;;;;;;30.42;22.71;99938.34;7345087;19;20360;-67
2023/05/17 06:40:45;;;;;;;4.65;2.88;;;;;;;31.11;22.22;99931.50;7339207;19;20356;-67
2023/05/17 06:43:10;;;;;;;3.03;2.80;;;;;;;31.37;21.90;99942.09;7341247;19;20010;-66
2023/05/17 06:45:34;;;;;;;5.78;3.30;;;;;;;31.86;20.96;99928.91;7340258;19;20361;-67
2023/05/17 06:47:59;;;;;;;5.68;3.47;;;;;;;32.17;21.19;99933.19;7340418;19;20322;-68
2023/05/17 06:50:27;;;;;;;5.28;3.13;;;;;;;32.60;20.99;99940.19;7344834;19;20469;-65
2023/05/17 06:52:52;;;;;;;8.40;3.67;;;;;;;32.38;21.10;99937.25;7347287;19;20035;-67
2023/05/17 06:55:20;;;;;;;8.02;3.45;;;;;;;32.17;21.41;99932.38;7346124;19;20458;-65
2023/05/17 06:57:44;;;;;;;6.05;3.92;;;;;;;32.07;21.57;99933.81;7346655;19;20062;-66
2023/05/17 07:00:12;;;;;;;9.70;3.92;;;;;;;32.62;21.14;99940.78;7346466;19;20345;-68
2023/05/17 07:02:37;;;;;;;3.83;3.50;;;;;;;32.91;20.59;99934.19;7350943;19;20018;-66
2023/05/17 07:05:05;;;;;;;5.68;3.25;;;;;;;33.65;19.77;99942.34;7346162;19;20018;-68
2023/05/17 07:07:34;;;;;;;6.35;3.53;;;;;;;34.23;19.39;99950.97;7345408;19;20014;-67
2023/05/17 07:10:06;;;;;;;3.92;3.60;;;;;;;33.76;19.29;99944.22;7346253;19;20022;-67
2023/05/17 07:12:30;;;;;;;5.85;3.33;;;;;;;34.74;19.26;99929.47;7346934;19;20030;-64
2023/05/17 07:14:55;;;;;;;9.30;3.35;;;;;;;36.17;18.31;99924.00;7346540;19;20025;-67
2023/05/17 07:17:22;;;;;;;5.78;3.60;;;;;;;37.14;17.16;99950.16;7346243;19;20022;-67
2023/05/17 07:19:49;;;;;;;3.78;3.47;;;;;;;36.21;17.15;99930.72;7348206;19;20079;-67
2023/05/17 07:22:14;;;;;;;8.27;3.60;;;;;;;35.08;18.31;99920.97;7352953;19;20021;-67
2023/05/17 07:24:39;;;;;;;6.45;3.78;;;;;;;35.43;18.45;99921.31;7348286;19;20014;-66
2023/05/17 07:27:04;;;;;;;3.65;3.35;;;;;;;36.11;17.67;99925.09;7347502;19;20026;-67
2023/05/17 07:32:02;;;;;;;4.25;3.58;;;;;;;37.26;16.88;99927.66;7348047;19;20029;-66
2023/05/17 07:34:31;;;;;;;4.40;4.10;;;;;;;37.72;16.62;99923.75;7347899;19;20504;-66
2023/05/17 07:36:56;;;;;;;5.07;3.80;;;;;;;38.26;16.22;99909.16;7346867;19;20380;-68
2023/05/17 07:39:21;;;;;;;4.43;3.95;;;;;;;38.07;15.85;99927.56;7349715;19;20014;-65
2023/05/17 07:41:45;;;;;;;4.43;4.00;;;;;;;37.13;16.57;99987.44;7342902;19;20007;-65
2023/05/17 07:44:10;;;;;;;5.13;4.38;;;;;;;37.65;16.15;99920.44;7346755;19;20093;-65
2023/05/17 07:46:35;;;;;;;4.07;3.67;;;;;;;38.10;16.14;99918.69;7348101;19;20116;-65
2023/05/17 07:49:00;;;;;;;4.40;4.00;;;;;;;38.70;16.02;99925.13;7348662;19;20074;-66
2023/05/17 07:51:25;;;;;;;4.82;4.00;;;;;;;39.86;15.34;99926.16;7345463;19;20051;-66
2023/05/17 07:53:49;;;;;;;5.13;4.65;;;;;;;39.72;15.34;99920.44;7345375;19;20362;-65
2023/05/17 07:56:15;;;;;;;5.07;4.30;;;;;;;39.58;15.54;99922.25;7343575;19;20011;-67
2023/05/17 07:58:42;;;;;;;4.60;4.20;;;;;;;40.03;14.56;99926.53;7345659;19;20007;-67
2023/05/17 08:01:08;;;;;;;7.78;4.68;;;;;;;38.73;15.34;99914.22;7341620;19;20013;-66
2023/05/17 08:03:33;;;;;;;5.28;4.78;;;;;;;38.85;15.45;99914.69;7345574;19;20014;-66
2023/05/17 08:05:57;;;;;;;4.90;4.50;;;;;;;38.11;15.36;99923.97;7348169;19;20041;-67
2023/05/17 08:08:22;;;;;;;5.10;4.60;;;;;;;37.81;15.66;99912.06;7344567;19;20021;-66
2023/05/17 08:10:48;;;;;;;6.30;4.80;;;;;;;37.67;16.11;99920.16;7343396;19;20025;-73
2023/05/17 08:13:14;;;;;;;4.57;4.10;;;;;;;37.63;16.04;99924.63;7343057;19;20341;-65
2023/05/17 08:15:39;;;;;;;7.05;4.55;;;;;;;37.48;15.71;99913.47;7344147;19;20396;-65
2023/05/17 08:18:05;;;;;;;4.45;4.05;;;;;;;36.92;16.16;99922.59;7343294;19;20017;-66
2023/05/17 08:20:30;;;;;;;5.78;4.60;;;;;;;37.50;16.28;99909.28;7345107;19;20011;-66
2023/05/17 08:22:55;;;;;;;7.10;4.88;;;;;;;37.97;15.99;99916.47;7344196;19;20015;-66
2023/05/17 08:25:21;;;;;;;4.88;4.47;;;;;;;37.83;15.40;99902.31;7343148;19;20014;-66
2023/05/17 08:27:46;;;;;;;4.85;4.35;;;;;;;38.32;16.10;99902.44;7341807;19;20011;-68
2023/05/17 08:30:11;;;;;;;6.55;4.32;;;;;;;39.56;15.49;99905.78;7343700;19;20021;-68
2023/05/17 08:32:37;;;;;;;4.60;4.30;;;;;;;40.30;14.77;99897.22;7347104;19;20039;-65
2023/05/17 08:35:03;;;;;;;5.78;5.05;;;;;;;39.97;14.27;100005.91;7342657;19;20027;-65
2023/05/17 08:37:28;;;;;;;7.72;5.40;;;;;;;39.92;14.55;99998.44;7342263;19;20014;-64
2023/05/17 08:39:53;;;;;;;6.22;5.38;;;;;;;40.32;14.13;99940.44;7345033;19;20044;-65
2023/05/17 08:42:21;;;;;;;5.40;4.90;;;;;;;39.82;14.59;99919.50;7343088;19;20458;-65
2023/05/17 08:44:46;;;;;;;5.72;5.15;;;;;;;39.43;14.71;99900.06;7341312;19;20026;-64
2023/05/17 08:47:24;;;;;;;9.52;5.55;;;;;;;39.72;14.76;99900.91;7342450;19;20015;-65
2023/05/17 08:49:49;;;;;;;7.30;5.15;;;;;;;41.00;14.58;99895.34;7341033;19;20416;-66
2023/05/17 08:52:14;;;;;;;7.18;5.53;;;;;;;42.16;14.06;99905.59;7342477;19;20623;-65
2023/05/17 08:54:44;;;;;;;7.38;5.75;;;;;;;43.71;13.44;99904.16;7345350;19;20039;-66
2023/05/17 08:57:12;;;;;;;7.10;5.90;;;;;;;44.10;12.44;99904.22;7343027;19;20011;-66
2023/05/17 08:59:47;;;;;;;7.95;6.63;;;;;;;43.16;13.05;99898.84;7343081;19;20033;-65
2023/05/17 09:02:13;;;;;;;6.70;6.10;;;;;;;42.90;13.03;99906.22;7339976;19;20022;-66
2023/05/17 09:04:42;;;;;;;7.10;6.47;;;;;;;43.14;13.35;99897.47;7341933;19;20458;-65
2023/05/17 09:07:08;;;;;;;7.10;6.15;;;;;;;42.28;13.52;99911.50;7341058;19;20035;-66
2023/05/17 09:09:32;;;;;;;6.97;6.25;;;;;;;42.19;13.75;99893.78;7342339;19;20021;-65
2023/05/17 09:11:58;;;;;;;11.73;6.65;;;;;;;42.18;13.83;99894.91;7341271;19;20018;-65
2023/05/17 09:14:24;;;;;;;7.22;6.53;;;;;;;42.79;13.40;99891.59;7344223;19;20045;-65
2023/05/17 09:16:56;;;;;;;6.75;6.15;;;;;;;42.61;13.59;99899.00;7342160;19;20014;-66
2023/05/17 09:19:21;;;;;;;7.63;6.93;;;;;;;41.18;13.97;99894.53;7345042;19;20350;-65
2023/05/17 09:21:53;;;;;;;6.10;5.50;;;;;;;41.25;14.07;99897.75;7341772;19;20364;-66
2023/05/17 09:24:31;;;;;;;7.22;6.57;;;;;;;41.31;13.85;99884.50;7342797;19;20010;-65
2023/05/17 09:27:02;;;;;;;8.23;6.85;;;;;;;41.19;14.17;99890.59;7344756;19;20041;-65
2023/05/17 09:29:36;;;;;;;7.13;6.43;;;;;;;42.02;13.76;99894.38;7340141;19;20031;-65
2023/05/17 09:32:17;;;;;;;7.80;7.13;;;;;;;44.37;13.19;99976.22;7343622;19;20026;-65
2023/05/17 09:34:45;;;;;;;8.10;7.40;;;;;;;45.19;12.21;99969.78;7343332;19;20035;-65
2023/05/17 09:37:14;;;;;;;8.63;7.90;;;;;;;46.76;11.41;99966.16;7341443;19;20002;-65
2023/05/17 09:39:46;;;;;;;10.38;9.63;;;;;;;46.88;11.07;99931.53;7339998;19;20019;-66
2023/05/17 09:42:15;;;;;;;11.82;10.85;;;;;;;45.88;11.46;99946.31;7339456;19;20358;-65
2023/05/17 09:44:56;;;;;;;11.27;10.27;;;;;;;46.26;11.25;99971.75;7338653;19;20473;-65
2023/05/17 09:47:22;;;;;;;11.80;10.80;;;;;;;45.59;11.57;99921.75;7340537;19;20493;-64
2023/05/17 09:49:47;;;;;;;10.68;9.93;;;;;;;46.35;11.50;99940.69;7340941;19;20477;-67
2023/05/17 09:52:17;;;;;;;11.40;10.60;;;;;;;45.80;11.38;99964.09;7340696;19;20429;-67
2023/05/17 09:54:52;;;;;;;9.93;9.02;;;;;;;44.56;12.11;99871.09;7341044;19;20052;-65
2023/05/17 09:57:20;;;;;;;9.52;8.52;;;;;;;44.65;11.64;99869.09;7339187;19;20356;-67
2023/05/17 09:59:46;;;;;;;11.02;9.60;;;;;;;45.22;11.78;99864.16;7339546;19;20046;-65
2023/05/17 10:02:19;;;;;;;11.50;10.60;;;;;;;46.57;11.47;99861.41;7336714;19;20014;-69
2023/05/17 10:04:50;;;;;;;11.70;10.80;;;;;;;46.01;11.61;99874.84;7340534;19;20480;-67
2023/05/17 10:07:20;;;;;;;10.65;9.65;;;;;;;45.16;11.87;99863.47;7339286;19;20018;-66
2023/05/17 10:09:47;;;;;;;10.50;9.63;;;;;;;43.62;12.18;99855.56;7340332;19;20019;-66
2023/05/17 10:12:21;;;;;;;9.77;9.07;;;;;;;43.50;12.29;99860.91;7340337;19;20600;-65
2023/05/17 10:14:49;;;;;;;8.77;8.18;;;;;;;43.76;12.33;99856.28;7341051;19;20025;-66
2023/05/17 10:17:14;;;;;;;10.50;9.13;;;;;;;44.81;11.95;99851.41;7340383;19;20023;-67
2023/05/17 10:19:40;;;;;;;11.45;10.75;;;;;;;45.77;11.77;99861.34;7341014;19;20034;-66
2023/05/17 10:22:06;;;;;;;12.50;11.32;;;;;;;45.97;11.54;99854.13;7341244;19;20810;-66
2023/05/17 10:24:33;;;;;;;17.50;11.88;;;;;;;43.89;12.33;99844.13;7343712;19;20030;-65
2023/05/17 10:26:58;;;;;;;9.02;8.20;;;;;;;41.05;13.26;99853.31;7348130;19;20006;-65
2023/05/17 10:29:36;;;;;;;9.23;6.33;;;;;;;38.51;14.86;99844.94;7348727;19;20026;-67
2023/05/17 10:32:09;;;;;;;7.63;5.30;;;;;;;36.60;16.22;99835.84;7350599;19;20018;-67
2023/05/17 10:34:35;;;;;;;;;;;;;;;36.51;15.84;99848.59;7350125;19;20018;-65
2023/05/17 10:37:06;;;;;;;4.70;4.30;;;;;;;33.04;18.63;99842.72;7348477;19;20252;-63
2023/05/17 10:39:37;;;;;;;8.55;4.13;;;;;;;31.83;19.58;99835.66;7348966;19;20022;-65
2023/05/17 10:42:06;;;;;;;4.53;3.78;;;;;;;30.29;21.05;99840.34;7346418;19;20829;-67
2023/05/17 10:44:33;;;;;;;5.88;3.90;;;;;;;29.13;21.53;99828.50;7349900;19;20040;-68
2023/05/17 10:49:36;;;;;;;7.57;4.05;;;;;;;27.67;24.02;99836.75;7348882;19;20021;-67
2023/05/17 10:52:22;;;;;;;4.78;3.90;;;;;;;27.42;24.75;99824.81;7346288;19;20015;-72
2023/05/17 10:54:50;;;;;;;6.32;3.80;;;;;;;26.83;24.92;99822.09;7346014;19;20340;-68
2023/05/17 10:57:41;;;;;;;4.60;3.40;;;;;;;26.58;25.70;99832.78;7349493;19;20011;-67
2023/05/17 11:00:09;;;;;;;6.53;3.50;;;;;;;26.14;25.68;99839.59;7345996;19;20488;-67
2023/05/17 11:02:41;;;;;;;7.63;4.03;;;;;;;25.82;26.59;99823.94;7346204;19;20019;-66
2023/05/17 11:05:24;;;;;;;5.07;4.15;;;;;;;25.48;26.25;99830.25;7347693;19;20358;-67
2023/05/17 11:08:17;;;;;;;4.10;3.10;;;;;;;24.98;27.55;99824.00;7349197;19;20412;-68
2023/05/17 11:11:11;;;;;;;4.50;3.30;;;;;;;24.77;27.90;99813.13;7348112;19;20014;-67
2023/05/17 11:13:53;;;;;;;7.10;3.28;;;;;;;24.93;26.99;99827.34;7350684;19;20007;-66
2023/05/17 11:16:21;;;;;;;3.78;3.42;;;;;;;24.51;27.95;99821.88;7347221;19;20014;-66
2023/05/17 11:18:51;;;;;;;7.20;3.42;;;;;;;24.42;28.21;99831.22;7350565;19;20019;-66
2023/05/17 11:21:17;;;;;;;6.63;3.83;;;;;;;24.21;28.21;99824.72;7343509;19;20023;-66
2023/05/17 11:23:46;;;;;;;5.18;3.10;;;;;;;24.44;27.74;99813.66;7346134;19;20025;-71
2023/05/17 11:26:20;;;;;;;3.72;2.97;;;;;;;24.34;27.85;99823.19;7347273;19;20045;-65
2023/05/17 11:28:45;;;;;;;12.00;3.60;;;;;;;24.01;28.46;99818.19;7346085;19;20007;-68
2023/05/17 11:31:14;;;;;;;4.57;2.90;;;;;;;23.81;29.11;99812.53;7345657;19;20015;-65
2023/05/17 11:33:44;;;;;;;3.72;3.00;;;;;;;23.80;28.91;99816.28;7344652;19;20017;-66
2023/05/17 11:36:30;;;;;;;6.68;4.45;;;;;;;23.78;29.79;99804.72;7346411;19;20453;-67
2023/05/17 11:39:10;;;;;;;5.93;3.35;;;;;;;23.74;28.96;99799.84;7347042;19;20462;-66
2023/05/17 11:41:46;;;;;;;5.28;3.25;;;;;;;23.60;29.64;99795.25;7344854;19;20023;-66